sensor_id;sensor_type;location;lat;lon;timestamp;temperature;humidity
16038;DHT22;8123;50.906;6.172;2023-06-14T00:01:43;18.10;1.00
16038;DHT22;8123;50.906;6.172;2023-06-14T00:04:11;18.10;1.00
16038;DHT22;8123;50.906;6.172;2023-06-14T00:06:39;18.00;1.00
16038;DHT22;8123;50.906;6.172;2023-06-14T00:09:05;18.00;1.00
16038;DHT22;8123;50.906;6.172;2023-06-14T00:11:31;18.00;1.00
16038;DHT22;8123;50.906;6.172;2023-06-14T00:13:57;17.90;1.00
16038;DHT22;8123;50.906;6.172;2023-06-14T00:16:23;17.90;1.00
16038;DHT22;8123;50.906;6.172;2023-06-14T00:18:48;17.90;1.00
16038;DHT22;8123;50.906;6.172;2023-06-14T00:21:14;17.80;1.00
16038;DHT22;8123;50.906;6.172;2023-06-14T00:23:39;17.80;1.00
16038;DHT22;8123;50.906;6.172;2023-06-14T00:26:05;17.70;1.00
16038;DHT22;8123;50.906;6.172;2023-06-14T00:28:31;17.60;1.00
16038;DHT22;8123;50.906;6.172;2023-06-14T00:30:56;17.60;1.00
16038;DHT22;8123;50.906;6.172;2023-06-14T00:33:22;17.50;59.90
16038;DHT22;8123;50.906;6.172;2023-06-14T00:35:48;17.50;58.50
16038;DHT22;8123;50.906;6.172;2023-06-14T00:38:14;17.40;99.90
16038;DHT22;8123;50.906;6.172;2023-06-14T00:40:39;17.30;99.90
16038;DHT22;8123;50.906;6.172;2023-06-14T00:43:05;17.30;99.90
16038;DHT22;8123;50.906;6.172;2023-06-14T00:45:31;17.30;99.90
16038;DHT22;8123;50.906;6.172;2023-06-14T00:48:01;17.20;99.90
16038;DHT22;8123;50.906;6.172;2023-06-14T00:50:28;17.20;99.90
16038;DHT22;8123;50.906;6.172;2023-06-14T00:52:55;17.10;99.90
16038;DHT22;8123;50.906;6.172;2023-06-14T00:55:21;17.10;1.00
16038;DHT22;8123;50.906;6.172;2023-06-14T00:57:48;17.00;1.00
16038;DHT22;8123;50.906;6.172;2023-06-14T01:00:14;16.90;1.00
16038;DHT22;8123;50.906;6.172;2023-06-14T01:02:40;16.90;1.00
16038;DHT22;8123;50.906;6.172;2023-06-14T01:05:06;16.80;1.00
16038;DHT22;8123;50.906;6.172;2023-06-14T01:13:19;16.70;99.90
16038;DHT22;8123;50.906;6.172;2023-06-14T01:15:47;16.70;99.90
16038;DHT22;8123;50.906;6.172;2023-06-14T01:18:13;16.70;99.90
16038;DHT22;8123;50.906;6.172;2023-06-14T01:20:46;16.70;99.90
16038;DHT22;8123;50.906;6.172;2023-06-14T01:23:20;16.60;1.00
16038;DHT22;8123;50.906;6.172;2023-06-14T01:25:46;16.60;99.90
16038;DHT22;8123;50.906;6.172;2023-06-14T01:28:13;16.50;99.90
16038;DHT22;8123;50.906;6.172;2023-06-14T01:30:42;16.50;1.00
16038;DHT22;8123;50.906;6.172;2023-06-14T01:33:22;16.50;99.90
16038;DHT22;8123;50.906;6.172;2023-06-14T01:35:50;16.60;1.00
16038;DHT22;8123;50.906;6.172;2023-06-14T01:38:19;16.60;96.80
16038;DHT22;8123;50.906;6.172;2023-06-14T01:40:45;16.60;1.00
16038;DHT22;8123;50.906;6.172;2023-06-14T01:43:13;16.60;1.00
16038;DHT22;8123;50.906;6.172;2023-06-14T01:45:41;16.60;1.00
16038;DHT22;8123;50.906;6.172;2023-06-14T01:48:08;16.70;1.00
16038;DHT22;8123;50.906;6.172;2023-06-14T01:50:34;16.70;99.90
16038;DHT22;8123;50.906;6.172;2023-06-14T01:52:59;16.70;99.90
16038;DHT22;8123;50.906;6.172;2023-06-14T01:55:25;16.70;99.90
16038;DHT22;8123;50.906;6.172;2023-06-14T01:57:51;16.70;99.90
16038;DHT22;8123;50.906;6.172;2023-06-14T02:00:18;16.70;99.90
16038;DHT22;8123;50.906;6.172;2023-06-14T02:02:44;16.70;99.90
16038;DHT22;8123;50.906;6.172;2023-06-14T02:05:10;16.70;99.90
16038;DHT22;8123;50.906;6.172;2023-06-14T02:07:36;16.70;99.90
16038;DHT22;8123;50.906;6.172;2023-06-14T02:10:03;16.70;99.90
16038;DHT22;8123;50.906;6.172;2023-06-14T02:12:28;16.60;99.90
16038;DHT22;8123;50.906;6.172;2023-06-14T02:14:54;16.70;99.90
16038;DHT22;8123;50.906;6.172;2023-06-14T02:17:22;16.60;99.90
16038;DHT22;8123;50.906;6.172;2023-06-14T02:19:47;16.60;99.90
16038;DHT22;8123;50.906;6.172;2023-06-14T02:22:14;16.60;99.90
16038;DHT22;8123;50.906;6.172;2023-06-14T02:24:41;16.60;99.90
16038;DHT22;8123;50.906;6.172;2023-06-14T02:27:07;16.50;99.90
16038;DHT22;8123;50.906;6.172;2023-06-14T02:29:35;16.50;99.90
16038;DHT22;8123;50.906;6.172;2023-06-14T02:32:01;16.50;99.90
16038;DHT22;8123;50.906;6.172;2023-06-14T02:34:27;16.50;99.90
16038;DHT22;8123;50.906;6.172;2023-06-14T02:36:52;16.50;99.90
16038;DHT22;8123;50.906;6.172;2023-06-14T02:39:18;16.40;99.90
16038;DHT22;8123;50.906;6.172;2023-06-14T02:41:46;16.40;99.90
16038;DHT22;8123;50.906;6.172;2023-06-14T02:44:13;16.40;99.90
16038;DHT22;8123;50.906;6.172;2023-06-14T02:46:39;16.40;99.90
16038;DHT22;8123;50.906;6.172;2023-06-14T02:49:05;16.30;99.90
16038;DHT22;8123;50.906;6.172;2023-06-14T02:51:30;16.30;99.90
16038;DHT22;8123;50.906;6.172;2023-06-14T02:53:56;16.20;99.90
16038;DHT22;8123;50.906;6.172;2023-06-14T02:56:22;16.20;99.90
16038;DHT22;8123;50.906;6.172;2023-06-14T02:58:48;16.20;99.90
16038;DHT22;8123;50.906;6.172;2023-06-14T03:01:14;16.20;99.90
16038;DHT22;8123;50.906;6.172;2023-06-14T03:03:40;16.20;1.00
16038;DHT22;8123;50.906;6.172;2023-06-14T03:06:05;16.10;99.90
16038;DHT22;8123;50.906;6.172;2023-06-14T03:08:33;16.10;1.00
16038;DHT22;8123;50.906;6.172;2023-06-14T03:11:04;16.10;99.90
16038;DHT22;8123;50.906;6.172;2023-06-14T03:13:35;16.00;1.00
16038;DHT22;8123;50.906;6.172;2023-06-14T03:16:00;16.00;1.00
16038;DHT22;8123;50.906;6.172;2023-06-14T03:18:30;16.00;1.00
16038;DHT22;8123;50.906;6.172;2023-06-14T03:20:56;15.90;1.00
16038;DHT22;8123;50.906;6.172;2023-06-14T03:23:24;15.90;1.00
16038;DHT22;8123;50.906;6.172;2023-06-14T03:25:50;15.90;1.00
16038;DHT22;8123;50.906;6.172;2023-06-14T03:28:16;15.90;1.00
16038;DHT22;8123;50.906;6.172;2023-06-14T03:30:42;15.90;1.00
16038;DHT22;8123;50.906;6.172;2023-06-14T03:33:08;15.90;1.70
16038;DHT22;8123;50.906;6.172;2023-06-14T03:35:34;15.90;99.90
16038;DHT22;8123;50.906;6.172;2023-06-14T03:38:00;15.80;99.90
16038;DHT22;8123;50.906;6.172;2023-06-14T03:40:25;15.80;1.00
16038;DHT22;8123;50.906;6.172;2023-06-14T03:42:55;15.80;4.80
16038;DHT22;8123;50.906;6.172;2023-06-14T03:45:21;15.80;99.90
16038;DHT22;8123;50.906;6.172;2023-06-14T03:47:47;15.80;99.90
16038;DHT22;8123;50.906;6.172;2023-06-14T03:50:13;15.80;99.90
16038;DHT22;8123;50.906;6.172;2023-06-14T03:52:39;15.90;11.70
16038;DHT22;8123;50.906;6.172;2023-06-14T03:55:06;15.90;99.90
16038;DHT22;8123;50.906;6.172;2023-06-14T03:57:31;15.90;99.90
16038;DHT22;8123;50.906;6.172;2023-06-14T03:59:57;16.00;71.60
16038;DHT22;8123;50.906;6.172;2023-06-14T04:02:23;16.00;99.90
16038;DHT22;8123;50.906;6.172;2023-06-14T04:04:49;16.20;1.00
16038;DHT22;8123;50.906;6.172;2023-06-14T04:07:15;16.40;99.90
16038;DHT22;8123;50.906;6.172;2023-06-14T04:09:45;16.60;1.00
16038;DHT22;8123;50.906;6.172;2023-06-14T04:12:10;17.00;99.90
16038;DHT22;8123;50.906;6.172;2023-06-14T04:14:40;17.40;99.90
16038;DHT22;8123;50.906;6.172;2023-06-14T04:17:06;17.80;14.30
16038;DHT22;8123;50.906;6.172;2023-06-14T04:19:32;18.00;1.00
16038;DHT22;8123;50.906;6.172;2023-06-14T04:21:58;18.20;1.00
16038;DHT22;8123;50.906;6.172;2023-06-14T04:24:28;18.40;1.00
16038;DHT22;8123;50.906;6.172;2023-06-14T04:27:01;18.70;1.00
16038;DHT22;8123;50.906;6.172;2023-06-14T04:29:26;18.90;1.00
16038;DHT22;8123;50.906;6.172;2023-06-14T04:31:55;19.10;1.00
16038;DHT22;8123;50.906;6.172;2023-06-14T04:34:27;19.40;1.00
16038;DHT22;8123;50.906;6.172;2023-06-14T04:36:59;19.50;1.00
16038;DHT22;8123;50.906;6.172;2023-06-14T04:39:26;19.70;1.00
16038;DHT22;8123;50.906;6.172;2023-06-14T04:41:53;19.60;1.00
16038;DHT22;8123;50.906;6.172;2023-06-14T04:44:23;19.80;1.00
16038;DHT22;8123;50.906;6.172;2023-06-14T04:46:59;20.00;1.00
16038;DHT22;8123;50.906;6.172;2023-06-14T04:49:24;20.20;1.00
16038;DHT22;8123;50.906;6.172;2023-06-14T04:51:52;20.20;1.00
16038;DHT22;8123;50.906;6.172;2023-06-14T04:54:23;20.00;1.00
16038;DHT22;8123;50.906;6.172;2023-06-14T04:56:50;19.80;1.00
16038;DHT22;8123;50.906;6.172;2023-06-14T04:59:16;19.70;1.00
16038;DHT22;8123;50.906;6.172;2023-06-14T05:01:42;19.80;1.00
16038;DHT22;8123;50.906;6.172;2023-06-14T05:04:13;19.70;1.00
16038;DHT22;8123;50.906;6.172;2023-06-14T05:06:39;20.00;1.00
16038;DHT22;8123;50.906;6.172;2023-06-14T05:09:04;20.10;1.00
16038;DHT22;8123;50.906;6.172;2023-06-14T05:11:30;20.10;1.00
16038;DHT22;8123;50.906;6.172;2023-06-14T05:13:56;20.20;1.00
16038;DHT22;8123;50.906;6.172;2023-06-14T05:16:24;20.00;1.00
16038;DHT22;8123;50.906;6.172;2023-06-14T05:18:51;19.90;1.00
16038;DHT22;8123;50.906;6.172;2023-06-14T05:21:17;19.80;1.00
16038;DHT22;8123;50.906;6.172;2023-06-14T05:23:44;19.70;1.00
16038;DHT22;8123;50.906;6.172;2023-06-14T05:26:10;19.70;1.00
16038;DHT22;8123;50.906;6.172;2023-06-14T05:28:36;19.70;1.00
16038;DHT22;8123;50.906;6.172;2023-06-14T05:31:02;19.50;1.00
16038;DHT22;8123;50.906;6.172;2023-06-14T05:33:28;19.50;1.00
16038;DHT22;8123;50.906;6.172;2023-06-14T05:35:54;19.40;1.00
16038;DHT22;8123;50.906;6.172;2023-06-14T05:38:20;19.30;1.00
16038;DHT22;8123;50.906;6.172;2023-06-14T05:40:46;19.20;1.00
16038;DHT22;8123;50.906;6.172;2023-06-14T05:43:12;19.30;1.00
16038;DHT22;8123;50.906;6.172;2023-06-14T05:45:37;19.10;1.00
16038;DHT22;8123;50.906;6.172;2023-06-14T05:48:04;19.10;1.00
16038;DHT22;8123;50.906;6.172;2023-06-14T05:50:30;19.10;1.00
16038;DHT22;8123;50.906;6.172;2023-06-14T05:52:56;19.20;1.00
16038;DHT22;8123;50.906;6.172;2023-06-14T05:55:21;19.20;1.00
16038;DHT22;8123;50.906;6.172;2023-06-14T05:57:47;19.10;1.00
16038;DHT22;8123;50.906;6.172;2023-06-14T06:00:14;19.10;1.00
16038;DHT22;8123;50.906;6.172;2023-06-14T06:02:44;19.20;1.00
16038;DHT22;8123;50.906;6.172;2023-06-14T06:05:10;19.10;1.00
16038;DHT22;8123;50.906;6.172;2023-06-14T06:07:37;19.20;1.00
16038;DHT22;8123;50.906;6.172;2023-06-14T06:10:04;19.10;1.00
16038;DHT22;8123;50.906;6.172;2023-06-14T06:12:30;19.10;1.00
16038;DHT22;8123;50.906;6.172;2023-06-14T06:14:56;19.10;1.00
16038;DHT22;8123;50.906;6.172;2023-06-14T06:17:22;19.00;1.00
16038;DHT22;8123;50.906;6.172;2023-06-14T06:19:47;19.00;1.00
16038;DHT22;8123;50.906;6.172;2023-06-14T06:22:14;19.10;1.00
16038;DHT22;8123;50.906;6.172;2023-06-14T06:24:40;19.00;1.00
16038;DHT22;8123;50.906;6.172;2023-06-14T06:27:05;19.10;1.00
16038;DHT22;8123;50.906;6.172;2023-06-14T06:29:33;19.10;1.00
16038;DHT22;8123;50.906;6.172;2023-06-14T06:31:59;19.20;1.00
16038;DHT22;8123;50.906;6.172;2023-06-14T06:34:25;19.30;1.00
16038;DHT22;8123;50.906;6.172;2023-06-14T06:36:51;19.30;1.00
16038;DHT22;8123;50.906;6.172;2023-06-14T06:39:16;19.40;1.00
16038;DHT22;8123;50.906;6.172;2023-06-14T06:41:42;19.50;1.00
16038;DHT22;8123;50.906;6.172;2023-06-14T06:44:08;19.60;1.00
16038;DHT22;8123;50.906;6.172;2023-06-14T06:46:45;19.60;1.00
16038;DHT22;8123;50.906;6.172;2023-06-14T06:49:11;19.60;1.00
16038;DHT22;8123;50.906;6.172;2023-06-14T06:51:40;19.70;99.90
16038;DHT22;8123;50.906;6.172;2023-06-14T06:54:11;19.70;99.90
16038;DHT22;8123;50.906;6.172;2023-06-14T06:56:37;19.70;99.90
16038;DHT22;8123;50.906;6.172;2023-06-14T06:59:02;19.70;99.90
16038;DHT22;8123;50.906;6.172;2023-06-14T07:01:28;19.70;99.90
16038;DHT22;8123;50.906;6.172;2023-06-14T07:03:56;19.70;99.90
16038;DHT22;8123;50.906;6.172;2023-06-14T07:06:22;19.70;99.90
16038;DHT22;8123;50.906;6.172;2023-06-14T07:08:52;19.80;99.90
16038;DHT22;8123;50.906;6.172;2023-06-14T07:11:18;19.90;99.90
16038;DHT22;8123;50.906;6.172;2023-06-14T07:13:44;19.90;99.90
16038;DHT22;8123;50.906;6.172;2023-06-14T07:16:10;20.00;99.90
16038;DHT22;8123;50.906;6.172;2023-06-14T07:18:36;20.00;99.90
16038;DHT22;8123;50.906;6.172;2023-06-14T07:21:04;20.10;99.90
16038;DHT22;8123;50.906;6.172;2023-06-14T07:23:30;20.10;99.90
16038;DHT22;8123;50.906;6.172;2023-06-14T07:25:56;20.10;99.90
16038;DHT22;8123;50.906;6.172;2023-06-14T07:28:22;20.30;99.90
16038;DHT22;8123;50.906;6.172;2023-06-14T07:30:47;20.30;99.90
16038;DHT22;8123;50.906;6.172;2023-06-14T07:33:18;20.30;99.90
16038;DHT22;8123;50.906;6.172;2023-06-14T07:35:44;20.30;99.90
16038;DHT22;8123;50.906;6.172;2023-06-14T07:38:11;20.50;99.90
16038;DHT22;8123;50.906;6.172;2023-06-14T07:40:36;20.40;99.90
16038;DHT22;8123;50.906;6.172;2023-06-14T07:43:02;20.50;99.90
16038;DHT22;8123;50.906;6.172;2023-06-14T07:45:28;20.50;99.90
16038;DHT22;8123;50.906;6.172;2023-06-14T07:47:53;20.40;99.90
16038;DHT22;8123;50.906;6.172;2023-06-14T07:50:19;20.50;99.90
16038;DHT22;8123;50.906;6.172;2023-06-14T07:52:45;20.60;99.90
16038;DHT22;8123;50.906;6.172;2023-06-14T07:55:12;20.70;99.90
16038;DHT22;8123;50.906;6.172;2023-06-14T07:57:38;20.70;99.90
16038;DHT22;8123;50.906;6.172;2023-06-14T08:00:04;20.80;99.90
16038;DHT22;8123;50.906;6.172;2023-06-14T08:02:33;20.80;99.90
16038;DHT22;8123;50.906;6.172;2023-06-14T08:04:59;20.90;99.90
16038;DHT22;8123;50.906;6.172;2023-06-14T08:07:24;20.90;99.90
16038;DHT22;8123;50.906;6.172;2023-06-14T08:09:50;21.00;99.90
16038;DHT22;8123;50.906;6.172;2023-06-14T08:12:15;21.10;99.90
16038;DHT22;8123;50.906;6.172;2023-06-14T08:14:42;21.10;99.90
16038;DHT22;8123;50.906;6.172;2023-06-14T08:17:09;21.10;99.90
16038;DHT22;8123;50.906;6.172;2023-06-14T08:19:34;21.20;99.90
16038;DHT22;8123;50.906;6.172;2023-06-14T08:22:00;21.20;99.90
16038;DHT22;8123;50.906;6.172;2023-06-14T08:24:26;21.20;99.90
16038;DHT22;8123;50.906;6.172;2023-06-14T08:26:53;21.20;99.90
16038;DHT22;8123;50.906;6.172;2023-06-14T08:29:19;21.30;99.90
16038;DHT22;8123;50.906;6.172;2023-06-14T08:31:45;21.30;99.90
16038;DHT22;8123;50.906;6.172;2023-06-14T08:34:11;21.40;99.90
16038;DHT22;8123;50.906;6.172;2023-06-14T08:36:36;21.40;99.90
16038;DHT22;8123;50.906;6.172;2023-06-14T08:39:02;21.40;99.90
16038;DHT22;8123;50.906;6.172;2023-06-14T08:41:28;21.40;99.90
16038;DHT22;8123;50.906;6.172;2023-06-14T08:43:56;21.40;99.90
16038;DHT22;8123;50.906;6.172;2023-06-14T08:46:24;21.40;99.90
16038;DHT22;8123;50.906;6.172;2023-06-14T08:48:54;21.50;99.90
16038;DHT22;8123;50.906;6.172;2023-06-14T08:51:22;21.60;99.90
16038;DHT22;8123;50.906;6.172;2023-06-14T08:53:54;21.60;99.90
16038;DHT22;8123;50.906;6.172;2023-06-14T08:56:28;21.70;99.90
16038;DHT22;8123;50.906;6.172;2023-06-14T08:58:55;21.70;99.90
16038;DHT22;8123;50.906;6.172;2023-06-14T09:01:22;21.80;99.90
16038;DHT22;8123;50.906;6.172;2023-06-14T09:03:49;21.90;99.90
16038;DHT22;8123;50.906;6.172;2023-06-14T09:06:16;21.80;99.90
16038;DHT22;8123;50.906;6.172;2023-06-14T09:08:43;21.80;99.90
16038;DHT22;8123;50.906;6.172;2023-06-14T09:11:12;21.80;99.90
16038;DHT22;8123;50.906;6.172;2023-06-14T09:13:38;21.70;99.90
16038;DHT22;8123;50.906;6.172;2023-06-14T09:16:06;21.80;99.90
16038;DHT22;8123;50.906;6.172;2023-06-14T09:18:38;21.80;99.90
16038;DHT22;8123;50.906;6.172;2023-06-14T09:21:07;21.90;99.90
16038;DHT22;8123;50.906;6.172;2023-06-14T09:23:38;21.90;99.90
16038;DHT22;8123;50.906;6.172;2023-06-14T09:26:14;21.90;99.90
16038;DHT22;8123;50.906;6.172;2023-06-14T09:28:48;21.80;99.90
16038;DHT22;8123;50.906;6.172;2023-06-14T09:31:19;21.80;99.90
16038;DHT22;8123;50.906;6.172;2023-06-14T09:33:47;21.90;99.90
16038;DHT22;8123;50.906;6.172;2023-06-14T09:36:26;22.00;99.90
16038;DHT22;8123;50.906;6.172;2023-06-14T09:38:57;21.90;99.90
16038;DHT22;8123;50.906;6.172;2023-06-14T09:41:37;22.00;99.90
16038;DHT22;8123;50.906;6.172;2023-06-14T09:44:05;22.00;99.90
16038;DHT22;8123;50.906;6.172;2023-06-14T09:46:33;22.10;99.90
16038;DHT22;8123;50.906;6.172;2023-06-14T09:49:02;22.20;99.90
16038;DHT22;8123;50.906;6.172;2023-06-14T09:51:29;22.10;99.90
16038;DHT22;8123;50.906;6.172;2023-06-14T09:54:02;22.10;99.90
16038;DHT22;8123;50.906;6.172;2023-06-14T09:56:41;22.20;99.90
16038;DHT22;8123;50.906;6.172;2023-06-14T09:59:09;22.20;99.90
16038;DHT22;8123;50.906;6.172;2023-06-14T10:01:42;22.20;99.90
16038;DHT22;8123;50.906;6.172;2023-06-14T10:04:09;22.30;99.90
16038;DHT22;8123;50.906;6.172;2023-06-14T10:06:43;22.20;99.90
16038;DHT22;8123;50.906;6.172;2023-06-14T10:09:11;22.20;99.90
16038;DHT22;8123;50.906;6.172;2023-06-14T10:11:37;22.40;99.90
16038;DHT22;8123;50.906;6.172;2023-06-14T10:14:09;22.50;99.90
16038;DHT22;8123;50.906;6.172;2023-06-14T10:17:01;22.60;99.90
16038;DHT22;8123;50.906;6.172;2023-06-14T10:19:42;22.60;99.90
16038;DHT22;8123;50.906;6.172;2023-06-14T10:22:21;22.60;99.90
16038;DHT22;8123;50.906;6.172;2023-06-14T10:24:50;22.60;99.90
16038;DHT22;8123;50.906;6.172;2023-06-14T10:27:16;22.70;99.90
16038;DHT22;8123;50.906;6.172;2023-06-14T10:32:18;22.70;99.90
16038;DHT22;8123;50.906;6.172;2023-06-14T10:34:44;22.70;99.90
16038;DHT22;8123;50.906;6.172;2023-06-14T10:37:12;22.70;99.90
16038;DHT22;8123;50.906;6.172;2023-06-14T10:39:45;22.70;99.90
16038;DHT22;8123;50.906;6.172;2023-06-14T10:42:14;22.80;99.90
16038;DHT22;8123;50.906;6.172;2023-06-14T10:44:53;22.70;99.90
16038;DHT22;8123;50.906;6.172;2023-06-14T10:50:08;22.70;99.90
16038;DHT22;8123;50.906;6.172;2023-06-14T10:52:43;22.70;99.90
16038;DHT22;8123;50.906;6.172;2023-06-14T10:55:11;22.80;99.90
16038;DHT22;8123;50.906;6.172;2023-06-14T10:57:43;22.90;99.90
16038;DHT22;8123;50.906;6.172;2023-06-14T11:00:12;22.90;99.90
16038;DHT22;8123;50.906;6.172;2023-06-14T11:05:28;23.00;99.90
16038;DHT22;8123;50.906;6.172;2023-06-14T11:10:43;23.00;99.90
16038;DHT22;8123;50.906;6.172;2023-06-14T11:13:11;22.90;99.90
16038;DHT22;8123;50.906;6.172;2023-06-14T11:15:37;22.90;99.90
16038;DHT22;8123;50.906;6.172;2023-06-14T11:18:05;23.00;99.90
16038;DHT22;8123;50.906;6.172;2023-06-14T11:20:33;23.00;99.90
16038;DHT22;8123;50.906;6.172;2023-06-14T11:23:00;22.90;99.90
16038;DHT22;8123;50.906;6.172;2023-06-14T11:25:26;22.90;99.90
16038;DHT22;8123;50.906;6.172;2023-06-14T11:27:53;23.00;99.90
16038;DHT22;8123;50.906;6.172;2023-06-14T11:30:19;23.00;99.90
16038;DHT22;8123;50.906;6.172;2023-06-14T11:32:52;23.10;99.90
16038;DHT22;8123;50.906;6.172;2023-06-14T11:35:19;23.00;99.90
16038;DHT22;8123;50.906;6.172;2023-06-14T11:37:45;22.90;99.90
16038;DHT22;8123;50.906;6.172;2023-06-14T11:40:12;22.80;99.90
16038;DHT22;8123;50.906;6.172;2023-06-14T11:42:40;22.90;99.90
16038;DHT22;8123;50.906;6.172;2023-06-14T11:45:10;22.80;99.90
16038;DHT22;8123;50.906;6.172;2023-06-14T11:47:38;22.90;99.90
16038;DHT22;8123;50.906;6.172;2023-06-14T11:50:06;22.90;99.90
16038;DHT22;8123;50.906;6.172;2023-06-14T11:52:32;23.00;99.90
16038;DHT22;8123;50.906;6.172;2023-06-14T11:54:58;23.00;99.90
16038;DHT22;8123;50.906;6.172;2023-06-14T11:57:25;22.80;99.90
16038;DHT22;8123;50.906;6.172;2023-06-14T11:59:51;22.80;99.90
16038;DHT22;8123;50.906;6.172;2023-06-14T12:02:18;22.80;99.90
16038;DHT22;8123;50.906;6.172;2023-06-14T12:04:46;22.60;99.90
16038;DHT22;8123;50.906;6.172;2023-06-14T12:07:16;22.60;99.90
16038;DHT22;8123;50.906;6.172;2023-06-14T12:12:35;22.90;99.90
16038;DHT22;8123;50.906;6.172;2023-06-14T12:15:03;22.70;99.90
16038;DHT22;8123;50.906;6.172;2023-06-14T12:17:37;22.80;99.90
16038;DHT22;8123;50.906;6.172;2023-06-14T12:20:08;22.70;99.90
16038;DHT22;8123;50.906;6.172;2023-06-14T12:22:46;22.70;99.90
16038;DHT22;8123;50.906;6.172;2023-06-14T12:25:23;22.70;99.90
16038;DHT22;8123;50.906;6.172;2023-06-14T12:27:53;22.70;99.90
16038;DHT22;8123;50.906;6.172;2023-06-14T12:30:18;22.80;99.90
16038;DHT22;8123;50.906;6.172;2023-06-14T12:32:44;22.70;99.90
16038;DHT22;8123;50.906;6.172;2023-06-14T12:35:10;22.70;99.90
16038;DHT22;8123;50.906;6.172;2023-06-14T12:37:36;22.70;99.90
16038;DHT22;8123;50.906;6.172;2023-06-14T12:40:02;22.80;99.90
16038;DHT22;8123;50.906;6.172;2023-06-14T12:42:32;23.00;99.90
16038;DHT22;8123;50.906;6.172;2023-06-14T12:44:59;23.10;99.90
16038;DHT22;8123;50.906;6.172;2023-06-14T12:47:25;23.10;99.90
16038;DHT22;8123;50.906;6.172;2023-06-14T12:49:50;23.10;99.90
16038;DHT22;8123;50.906;6.172;2023-06-14T12:52:16;23.00;99.90
16038;DHT22;8123;50.906;6.172;2023-06-14T12:54:42;23.00;99.90
16038;DHT22;8123;50.906;6.172;2023-06-14T12:57:08;23.00;99.90
16038;DHT22;8123;50.906;6.172;2023-06-14T12:59:35;23.00;99.90
16038;DHT22;8123;50.906;6.172;2023-06-14T13:02:17;23.00;99.90
16038;DHT22;8123;50.906;6.172;2023-06-14T13:04:43;23.10;99.90
16038;DHT22;8123;50.906;6.172;2023-06-14T13:07:09;23.10;99.90
16038;DHT22;8123;50.906;6.172;2023-06-14T13:09:36;23.10;99.90
16038;DHT22;8123;50.906;6.172;2023-06-14T13:12:02;23.10;99.90
16038;DHT22;8123;50.906;6.172;2023-06-14T13:14:28;23.10;99.90
16038;DHT22;8123;50.906;6.172;2023-06-14T13:16:54;23.20;99.90
16038;DHT22;8123;50.906;6.172;2023-06-14T13:19:20;23.30;99.90
16038;DHT22;8123;50.906;6.172;2023-06-14T13:21:47;23.40;99.90
16038;DHT22;8123;50.906;6.172;2023-06-14T13:24:13;23.30;99.90
16038;DHT22;8123;50.906;6.172;2023-06-14T13:26:39;23.30;99.90
16038;DHT22;8123;50.906;6.172;2023-06-14T13:29:05;23.30;99.90
16038;DHT22;8123;50.906;6.172;2023-06-14T13:31:31;23.30;99.90
16038;DHT22;8123;50.906;6.172;2023-06-14T13:33:56;23.50;99.90
16038;DHT22;8123;50.906;6.172;2023-06-14T13:36:22;23.50;99.90
16038;DHT22;8123;50.906;6.172;2023-06-14T13:38:48;23.40;99.90
16038;DHT22;8123;50.906;6.172;2023-06-14T13:41:14;23.60;99.90
16038;DHT22;8123;50.906;6.172;2023-06-14T13:43:40;23.70;99.90
16038;DHT22;8123;50.906;6.172;2023-06-14T13:46:06;23.70;99.90
16038;DHT22;8123;50.906;6.172;2023-06-14T13:48:31;23.90;99.90
16038;DHT22;8123;50.906;6.172;2023-06-14T13:50:59;23.90;99.90
16038;DHT22;8123;50.906;6.172;2023-06-14T13:53:25;23.90;99.90
16038;DHT22;8123;50.906;6.172;2023-06-14T13:55:50;23.80;99.90
16038;DHT22;8123;50.906;6.172;2023-06-14T13:58:18;23.80;99.90
16038;DHT22;8123;50.906;6.172;2023-06-14T14:00:44;23.70;99.90
16038;DHT22;8123;50.906;6.172;2023-06-14T14:03:09;23.70;99.90
16038;DHT22;8123;50.906;6.172;2023-06-14T14:05:35;23.80;99.90
16038;DHT22;8123;50.906;6.172;2023-06-14T14:08:01;24.00;99.90
16038;DHT22;8123;50.906;6.172;2023-06-14T14:10:27;24.10;99.90
16038;DHT22;8123;50.906;6.172;2023-06-14T14:12:53;24.00;99.90
16038;DHT22;8123;50.906;6.172;2023-06-14T14:15:20;23.90;99.90
16038;DHT22;8123;50.906;6.172;2023-06-14T14:17:45;24.00;99.90
16038;DHT22;8123;50.906;6.172;2023-06-14T14:20:12;24.10;99.90
16038;DHT22;8123;50.906;6.172;2023-06-14T14:22:41;24.10;99.90
16038;DHT22;8123;50.906;6.172;2023-06-14T14:25:07;24.20;99.90
16038;DHT22;8123;50.906;6.172;2023-06-14T14:27:32;24.20;99.90
16038;DHT22;8123;50.906;6.172;2023-06-14T14:30:00;24.10;99.90
16038;DHT22;8123;50.906;6.172;2023-06-14T14:32:27;24.10;99.90
16038;DHT22;8123;50.906;6.172;2023-06-14T14:34:54;24.10;99.90
16038;DHT22;8123;50.906;6.172;2023-06-14T14:37:19;24.20;99.90
16038;DHT22;8123;50.906;6.172;2023-06-14T14:39:46;24.30;99.90
16038;DHT22;8123;50.906;6.172;2023-06-14T14:42:21;24.50;99.90
16038;DHT22;8123;50.906;6.172;2023-06-14T14:44:49;24.50;99.90
16038;DHT22;8123;50.906;6.172;2023-06-14T14:47:17;24.30;99.90
16038;DHT22;8123;50.906;6.172;2023-06-14T14:49:43;24.40;99.90
16038;DHT22;8123;50.906;6.172;2023-06-14T14:52:09;24.30;99.90
16038;DHT22;8123;50.906;6.172;2023-06-14T14:54:35;24.40;99.90
16038;DHT22;8123;50.906;6.172;2023-06-14T14:57:01;24.60;99.90
16038;DHT22;8123;50.906;6.172;2023-06-14T14:59:27;24.70;99.90
16038;DHT22;8123;50.906;6.172;2023-06-14T15:01:53;24.60;99.90
16038;DHT22;8123;50.906;6.172;2023-06-14T15:04:18;24.40;99.90
16038;DHT22;8123;50.906;6.172;2023-06-14T15:06:44;24.50;99.90
16038;DHT22;8123;50.906;6.172;2023-06-14T15:09:09;24.70;99.90
16038;DHT22;8123;50.906;6.172;2023-06-14T15:11:35;24.70;99.90
16038;DHT22;8123;50.906;6.172;2023-06-14T15:14:01;24.90;99.90
16038;DHT22;8123;50.906;6.172;2023-06-14T15:16:26;25.10;99.90
16038;DHT22;8123;50.906;6.172;2023-06-14T15:18:52;25.10;99.90
16038;DHT22;8123;50.906;6.172;2023-06-14T15:21:18;25.20;99.90
16038;DHT22;8123;50.906;6.172;2023-06-14T15:23:45;25.40;99.90
16038;DHT22;8123;50.906;6.172;2023-06-14T15:26:11;25.90;99.90
16038;DHT22;8123;50.906;6.172;2023-06-14T15:28:37;26.00;99.90
16038;DHT22;8123;50.906;6.172;2023-06-14T15:31:02;26.20;99.90
16038;DHT22;8123;50.906;6.172;2023-06-14T15:33:28;26.30;99.90
16038;DHT22;8123;50.906;6.172;2023-06-14T15:35:54;26.10;99.90
16038;DHT22;8123;50.906;6.172;2023-06-14T15:38:20;25.90;99.90
16038;DHT22;8123;50.906;6.172;2023-06-14T15:40:47;26.00;99.90
16038;DHT22;8123;50.906;6.172;2023-06-14T15:43:13;26.30;99.90
16038;DHT22;8123;50.906;6.172;2023-06-14T15:45:39;26.20;99.90
16038;DHT22;8123;50.906;6.172;2023-06-14T15:48:05;26.20;99.90
16038;DHT22;8123;50.906;6.172;2023-06-14T15:50:31;26.20;99.90
16038;DHT22;8123;50.906;6.172;2023-06-14T15:52:57;26.50;99.90
16038;DHT22;8123;50.906;6.172;2023-06-14T15:55:22;26.70;99.90
16038;DHT22;8123;50.906;6.172;2023-06-14T15:57:48;26.60;99.90
16038;DHT22;8123;50.906;6.172;2023-06-14T16:00:15;26.70;99.90
16038;DHT22;8123;50.906;6.172;2023-06-14T16:02:41;26.70;99.90
16038;DHT22;8123;50.906;6.172;2023-06-14T16:05:07;26.60;99.90
16038;DHT22;8123;50.906;6.172;2023-06-14T16:07:32;26.60;99.90
16038;DHT22;8123;50.906;6.172;2023-06-14T16:09:58;26.50;99.90